TimeMST,TemperatureF,Dew PointF,Humidity,Sea Level PressureIn,VisibilityMPH,Wind Direction,Wind SpeedMPH,Gust SpeedMPH,PrecipitationIn,Events,Conditions,WindDirDegrees,DateUTC
12:53 AM,46.9,28.9,50,30.02,10.0,SSE,3.5,-,N/A,,Clear,160,2012-12-05 07:53:00
1:53 AM,46.9,27.0,46,30.02,10.0,South,8.1,-,N/A,,Clear,180,2012-12-05 08:53:00
2:53 AM,45.0,24.1,44,29.99,10.0,South,6.9,-,N/A,,Clear,190,2012-12-05 09:53:00
3:53 AM,46.0,24.1,42,29.96,10.0,South,11.5,-,N/A,,Clear,190,2012-12-05 10:53:00
4:53 AM,45.0,23.0,42,29.96,10.0,SW,6.9,-,N/A,,Clear,230,2012-12-05 11:53:00
5:53 AM,46.0,26.1,46,29.94,10.0,SW,9.2,-,N/A,,Clear,230,2012-12-05 12:53:00
7:53 AM,52.0,30.0,43,29.90,10.0,Calm,Calm,-,N/A,,Clear,0,2012-12-05 14:53:00
8:53 AM,53.1,30.0,41,29.89,10.0,WSW,10.4,-,N/A,,Clear,240,2012-12-05 15:53:00
9:53 AM,54.0,30.0,40,29.86,10.0,WSW,12.7,-,N/A,,Clear,250,2012-12-05 16:53:00
10:53 AM,60.1,28.0,30,29.82,10.0,West,13.8,23.0,N/A,,Clear,260,2012-12-05 17:53:00
11:53 AM,62.1,28.9,29,29.78,10.0,WSW,11.5,-,N/A,,Clear,250,2012-12-05 18:53:00
12:53 PM,66.0,28.0,24,29.72,10.0,West,24.2,33.4,N/A,,Clear,270,2012-12-05 19:53:00
1:53 PM,66.9,28.9,24,29.70,10.0,West,19.6,28.8,N/A,,Clear,270,2012-12-05 20:53:00
2:53 PM,64.0,27.0,25,29.70,10.0,West,25.3,42.6,N/A,,Partly Cloudy,270,2012-12-05 21:53:00
3:53 PM,62.1,27.0,26,29.72,10.0,West,20.7,28.8,N/A,,Partly Cloudy,270,2012-12-05 22:53:00
4:53 PM,59.0,30.0,33,29.73,10.0,WSW,27.6,38.0,0.00,Rain,Light Rain,250,2012-12-05 23:53:00
5:53 PM,57.9,28.0,32,29.75,10.0,West,21.9,35.7,0.00,,Mostly Cloudy,260,2012-12-06 00:53:00
6:53 PM,55.9,28.9,36,29.76,10.0,West,18.4,25.3,N/A,,Partly Cloudy,270,2012-12-06 01:53:00
7:53 PM,55.9,28.9,36,29.76,10.0,West,21.9,29.9,N/A,,Clear,270,2012-12-06 02:53:00
8:53 PM,55.0,32.0,42,29.77,10.0,WNW,20.7,27.6,N/A,,Mostly Cloudy,290,2012-12-06 03:53:00
9:53 PM,53.1,32.0,45,29.79,10.0,West,16.1,28.8,N/A,,Partly Cloudy,280,2012-12-06 04:53:00
10:53 PM,51.1,33.1,50,29.80,10.0,WNW,10.4,19.6,N/A,,Partly Cloudy,300,2012-12-06 05:53:00
11:53 PM,48.9,33.1,54,29.80,10.0,WNW,13.8,-,N/A,,Scattered Clouds,290,2012-12-06 06:53:00